Airfield :
LOGIN :

Register | Disclaimer

   EN    FR    IT 

 










Legend :    VFR   Marginal VFR   IFR   Intensive IFR   Very Intensive IFR
Visi :
Ceiling :
>= 8 km
>= 3000ft
5 to 8 km
1000 to 3000 ft
1500m to 5 km
500 to 1000 ft
800 to 1500m
200 to 500 ft
< 800m
< 200 ft
Symbols :   Thunderstorms  Fog  Heavy snow  Heavy precipitations  Wind > 20 kt
SIGMETs :     Misc.  Thunderstorms  Icing  Turbulence  Mountain Waves  Volcanic Ashes






- Airport Elevation : 2945 ft
- IATA code : RGS


LEBG - Burgos

CURRENT METAR :
  • 260830Z 20006KT 4000 BR BKN002 02/02 Q1021

EXPIRED METARs :
  • 260800Z 18006KT 0900 R22/1600U R04/1000U FG VV002 02/02 Q1021
  • 260730Z 22005KT 0600 R22/1500D R04/0550N FG VV002 02/02 Q1020
  • 260700Z 21005KT 180V240 0600 R22/1100N R04/0500N FG VV002 02/02 Q1020
  • 260630Z 22005KT 0900 R22/1800U R04/0800D FG VV002 02/02 Q1020
  • 260600Z 21004KT 0600 R22/1300U R04/0400D FG VV002 02/02 Q1019

TAF TAF LEBG
Valid from the 26 at 09:00 until the 26 at 18:00 UTC


260800Z 2609/2618 21006KT 9999 SCT025 BKN035
TEMPO 2609/2611 2000 BCFG BKN003
TEMPO 2609/2610 0600 FG VV002
BECMG 2609/2610 20014KT
TEMPO 2615/2618 BKN008



MET'MAP, your aeronautical weather chart ! - Copyright ORBIFLY December 2007 - Disclaimer

ORBIFLY MET'MAP TEAM :

Programming & Development : Alexandra Zaïnal
Concept & original design : Baudouin d'Aumeries
Assistance for programming : Marc-Olivier Méhu
Technical & hardware support : Manuel Goepfert

Contact : metmap@orbifly.com




SOURCES & CREDITS :

   NOAA